sensor_id;sensor_type;location;lat;lon;timestamp;pressure;altitude;pressure_sealevel;temperature
73937;BMP180;59249;59.736;30.568;2023-07-08T00:00:33;101128.00;;;14.80
73937;BMP180;59249;59.736;30.568;2023-07-08T00:03:04;101125.00;;;14.80
73937;BMP180;59249;59.736;30.568;2023-07-08T00:05:34;101129.00;;;14.80
73937;BMP180;59249;59.736;30.568;2023-07-08T00:08:04;101129.00;;;14.80
73937;BMP180;59249;59.736;30.568;2023-07-08T00:10:33;101122.00;;;14.70
73937;BMP180;59249;59.736;30.568;2023-07-08T00:13:01;101117.00;;;14.70
73937;BMP180;59249;59.736;30.568;2023-07-08T00:15:33;101116.00;;;14.60
73937;BMP180;59249;59.736;30.568;2023-07-08T00:18:10;101110.00;;;14.60
73937;BMP180;59249;59.736;30.568;2023-07-08T00:20:43;101115.00;;;14.60
73937;BMP180;59249;59.736;30.568;2023-07-08T00:23:13;101107.00;;;14.50
73937;BMP180;59249;59.736;30.568;2023-07-08T00:25:42;101105.00;;;14.50
73937;BMP180;59249;59.736;30.568;2023-07-08T00:28:15;101106.00;;;14.50
73937;BMP180;59249;59.736;30.568;2023-07-08T00:30:46;101107.00;;;14.50
73937;BMP180;59249;59.736;30.568;2023-07-08T00:33:17;101107.00;;;14.50
73937;BMP180;59249;59.736;30.568;2023-07-08T00:35:46;101101.00;;;14.50
73937;BMP180;59249;59.736;30.568;2023-07-08T00:38:17;101103.00;;;14.50
73937;BMP180;59249;59.736;30.568;2023-07-08T00:40:58;101104.00;;;14.40
73937;BMP180;59249;59.736;30.568;2023-07-08T00:43:36;101093.00;;;14.40
73937;BMP180;59249;59.736;30.568;2023-07-08T00:46:20;101096.00;;;14.40
73937;BMP180;59249;59.736;30.568;2023-07-08T00:49:03;101093.00;;;14.30
73937;BMP180;59249;59.736;30.568;2023-07-08T00:51:42;101088.00;;;14.30
73937;BMP180;59249;59.736;30.568;2023-07-08T00:54:15;101085.00;;;14.20
73937;BMP180;59249;59.736;30.568;2023-07-08T00:56:48;101092.00;;;14.10
73937;BMP180;59249;59.736;30.568;2023-07-08T00:59:24;101085.00;;;14.10
73937;BMP180;59249;59.736;30.568;2023-07-08T01:01:58;101080.00;;;14.10
73937;BMP180;59249;59.736;30.568;2023-07-08T01:04:37;101076.00;;;14.10
73937;BMP180;59249;59.736;30.568;2023-07-08T01:07:10;101070.00;;;14.10
73937;BMP180;59249;59.736;30.568;2023-07-08T01:09:42;101074.00;;;14.10
73937;BMP180;59249;59.736;30.568;2023-07-08T01:12:19;101074.00;;;14.00
73937;BMP180;59249;59.736;30.568;2023-07-08T01:14:52;101079.00;;;14.00
73937;BMP180;59249;59.736;30.568;2023-07-08T01:17:24;101068.00;;;14.00
73937;BMP180;59249;59.736;30.568;2023-07-08T01:19:55;101070.00;;;14.00
73937;BMP180;59249;59.736;30.568;2023-07-08T01:22:26;101077.00;;;13.90
73937;BMP180;59249;59.736;30.568;2023-07-08T01:25:00;101066.00;;;13.90
73937;BMP180;59249;59.736;30.568;2023-07-08T01:27:35;101080.00;;;13.90
73937;BMP180;59249;59.736;30.568;2023-07-08T01:30:07;101080.00;;;13.90
73937;BMP180;59249;59.736;30.568;2023-07-08T01:32:41;101072.00;;;13.90
73937;BMP180;59249;59.736;30.568;2023-07-08T01:35:14;101073.00;;;13.90
73937;BMP180;59249;59.736;30.568;2023-07-08T01:37:48;101069.00;;;14.10
73937;BMP180;59249;59.736;30.568;2023-07-08T01:40:25;101072.00;;;14.20
73937;BMP180;59249;59.736;30.568;2023-07-08T01:42:56;101078.00;;;14.40
73937;BMP180;59249;59.736;30.568;2023-07-08T01:45:28;101080.00;;;14.50
73937;BMP180;59249;59.736;30.568;2023-07-08T01:48:08;101080.00;;;14.70
73937;BMP180;59249;59.736;30.568;2023-07-08T01:50:42;101080.00;;;15.00
73937;BMP180;59249;59.736;30.568;2023-07-08T01:53:21;101077.00;;;15.20
73937;BMP180;59249;59.736;30.568;2023-07-08T01:55:56;101082.00;;;15.40
73937;BMP180;59249;59.736;30.568;2023-07-08T01:58:26;101073.00;;;15.60
73937;BMP180;59249;59.736;30.568;2023-07-08T02:00:55;101076.00;;;15.70
73937;BMP180;59249;59.736;30.568;2023-07-08T02:03:26;101073.00;;;15.90
73937;BMP180;59249;59.736;30.568;2023-07-08T02:05:55;101073.00;;;16.10
73937;BMP180;59249;59.736;30.568;2023-07-08T02:08:26;101074.00;;;16.20
73937;BMP180;59249;59.736;30.568;2023-07-08T02:10:56;101076.00;;;16.40
73937;BMP180;59249;59.736;30.568;2023-07-08T02:13:26;101090.00;;;16.60
73937;BMP180;59249;59.736;30.568;2023-07-08T02:15:56;101080.00;;;16.60
73937;BMP180;59249;59.736;30.568;2023-07-08T02:18:26;101082.00;;;16.80
73937;BMP180;59249;59.736;30.568;2023-07-08T02:20:55;101090.00;;;16.90
73937;BMP180;59249;59.736;30.568;2023-07-08T02:23:25;101093.00;;;17.00
73937;BMP180;59249;59.736;30.568;2023-07-08T02:25:59;101089.00;;;17.20
73937;BMP180;59249;59.736;30.568;2023-07-08T02:28:28;101082.00;;;17.50
73937;BMP180;59249;59.736;30.568;2023-07-08T02:31:01;101087.00;;;17.60
73937;BMP180;59249;59.736;30.568;2023-07-08T02:33:31;101076.00;;;17.50
73937;BMP180;59249;59.736;30.568;2023-07-08T02:36:00;101088.00;;;17.30
73937;BMP180;59249;59.736;30.568;2023-07-08T02:38:30;101089.00;;;17.00
73937;BMP180;59249;59.736;30.568;2023-07-08T02:40:59;101086.00;;;16.80
73937;BMP180;59249;59.736;30.568;2023-07-08T02:43:29;101093.00;;;16.60
73937;BMP180;59249;59.736;30.568;2023-07-08T02:45:59;101086.00;;;16.50
73937;BMP180;59249;59.736;30.568;2023-07-08T02:48:27;101086.00;;;16.30
73937;BMP180;59249;59.736;30.568;2023-07-08T02:50:59;101080.00;;;16.40
73937;BMP180;59249;59.736;30.568;2023-07-08T02:53:28;101075.00;;;16.30
73937;BMP180;59249;59.736;30.568;2023-07-08T02:55:59;101079.00;;;16.40
73937;BMP180;59249;59.736;30.568;2023-07-08T02:58:28;101082.00;;;16.40
73937;BMP180;59249;59.736;30.568;2023-07-08T03:00:57;101069.00;;;16.60
73937;BMP180;59249;59.736;30.568;2023-07-08T03:03:31;101073.00;;;16.90
73937;BMP180;59249;59.736;30.568;2023-07-08T03:06:06;101073.00;;;17.30
73937;BMP180;59249;59.736;30.568;2023-07-08T03:08:34;101077.00;;;17.60
73937;BMP180;59249;59.736;30.568;2023-07-08T03:11:06;101079.00;;;17.80
73937;BMP180;59249;59.736;30.568;2023-07-08T03:13:35;101082.00;;;17.90
73937;BMP180;59249;59.736;30.568;2023-07-08T03:16:05;101073.00;;;18.00
73937;BMP180;59249;59.736;30.568;2023-07-08T03:18:42;101077.00;;;18.20
73937;BMP180;59249;59.736;30.568;2023-07-08T03:21:15;101071.00;;;18.50
73937;BMP180;59249;59.736;30.568;2023-07-08T03:23:51;101069.00;;;18.60
73937;BMP180;59249;59.736;30.568;2023-07-08T03:26:23;101075.00;;;18.60
73937;BMP180;59249;59.736;30.568;2023-07-08T03:28:54;101069.00;;;18.70
73937;BMP180;59249;59.736;30.568;2023-07-08T03:31:26;101068.00;;;18.80
73937;BMP180;59249;59.736;30.568;2023-07-08T03:33:56;101072.00;;;18.90
73937;BMP180;59249;59.736;30.568;2023-07-08T03:36:28;101071.00;;;18.90
73937;BMP180;59249;59.736;30.568;2023-07-08T03:38:57;101072.00;;;18.80
73937;BMP180;59249;59.736;30.568;2023-07-08T03:41:28;101067.00;;;18.60
73937;BMP180;59249;59.736;30.568;2023-07-08T03:43:58;101066.00;;;18.50
73937;BMP180;59249;59.736;30.568;2023-07-08T03:46:27;101069.00;;;18.30
73937;BMP180;59249;59.736;30.568;2023-07-08T03:48:56;101066.00;;;18.20
73937;BMP180;59249;59.736;30.568;2023-07-08T03:51:27;101069.00;;;18.10
73937;BMP180;59249;59.736;30.568;2023-07-08T03:53:58;101051.00;;;18.00
73937;BMP180;59249;59.736;30.568;2023-07-08T03:56:30;101055.00;;;17.80
73937;BMP180;59249;59.736;30.568;2023-07-08T03:58:59;101055.00;;;17.80
73937;BMP180;59249;59.736;30.568;2023-07-08T04:01:30;101062.00;;;17.70
73937;BMP180;59249;59.736;30.568;2023-07-08T04:03:59;101060.00;;;17.70
73937;BMP180;59249;59.736;30.568;2023-07-08T04:06:28;101064.00;;;17.80
73937;BMP180;59249;59.736;30.568;2023-07-08T04:08:57;101066.00;;;17.80
73937;BMP180;59249;59.736;30.568;2023-07-08T04:11:26;101072.00;;;17.80
73937;BMP180;59249;59.736;30.568;2023-07-08T04:13:56;101062.00;;;17.80
73937;BMP180;59249;59.736;30.568;2023-07-08T04:16:29;101060.00;;;17.90
73937;BMP180;59249;59.736;30.568;2023-07-08T04:19:14;101062.00;;;18.00
73937;BMP180;59249;59.736;30.568;2023-07-08T04:21:44;101056.00;;;18.00
73937;BMP180;59249;59.736;30.568;2023-07-08T04:24:15;101055.00;;;17.90
73937;BMP180;59249;59.736;30.568;2023-07-08T04:26:48;101056.00;;;17.90
73937;BMP180;59249;59.736;30.568;2023-07-08T04:29:20;101055.00;;;17.90
73937;BMP180;59249;59.736;30.568;2023-07-08T04:31:50;101049.00;;;18.00
73937;BMP180;59249;59.736;30.568;2023-07-08T04:34:19;101055.00;;;18.00
73937;BMP180;59249;59.736;30.568;2023-07-08T04:36:48;101057.00;;;18.00
73937;BMP180;59249;59.736;30.568;2023-07-08T04:39:17;101058.00;;;18.00
73937;BMP180;59249;59.736;30.568;2023-07-08T04:41:45;101057.00;;;18.10
73937;BMP180;59249;59.736;30.568;2023-07-08T04:44:14;101056.00;;;18.10
73937;BMP180;59249;59.736;30.568;2023-07-08T04:46:48;101042.00;;;18.10
73937;BMP180;59249;59.736;30.568;2023-07-08T04:49:23;101044.00;;;18.10
73937;BMP180;59249;59.736;30.568;2023-07-08T04:52:04;101045.00;;;18.20
73937;BMP180;59249;59.736;30.568;2023-07-08T04:54:42;101042.00;;;18.10
73937;BMP180;59249;59.736;30.568;2023-07-08T04:57:11;101044.00;;;18.20
73937;BMP180;59249;59.736;30.568;2023-07-08T04:59:39;101038.00;;;18.10
73937;BMP180;59249;59.736;30.568;2023-07-08T05:02:10;101039.00;;;18.20
73937;BMP180;59249;59.736;30.568;2023-07-08T05:04:39;101040.00;;;18.00
73937;BMP180;59249;59.736;30.568;2023-07-08T05:07:07;101041.00;;;18.20
73937;BMP180;59249;59.736;30.568;2023-07-08T05:09:36;101035.00;;;18.40
73937;BMP180;59249;59.736;30.568;2023-07-08T05:12:06;101030.00;;;18.50
73937;BMP180;59249;59.736;30.568;2023-07-08T05:14:38;101024.00;;;18.60
73937;BMP180;59249;59.736;30.568;2023-07-08T05:17:07;101027.00;;;18.70
73937;BMP180;59249;59.736;30.568;2023-07-08T05:19:40;101032.00;;;18.70
73937;BMP180;59249;59.736;30.568;2023-07-08T05:22:11;101037.00;;;18.80
73937;BMP180;59249;59.736;30.568;2023-07-08T05:24:40;101037.00;;;18.80
73937;BMP180;59249;59.736;30.568;2023-07-08T05:27:10;101028.00;;;18.90
73937;BMP180;59249;59.736;30.568;2023-07-08T05:29:40;101034.00;;;19.00
73937;BMP180;59249;59.736;30.568;2023-07-08T05:32:10;101033.00;;;19.00
73937;BMP180;59249;59.736;30.568;2023-07-08T05:34:39;101022.00;;;18.80
73937;BMP180;59249;59.736;30.568;2023-07-08T05:37:09;101024.00;;;18.70
73937;BMP180;59249;59.736;30.568;2023-07-08T05:39:38;101023.00;;;18.70
73937;BMP180;59249;59.736;30.568;2023-07-08T05:42:07;101028.00;;;18.90
73937;BMP180;59249;59.736;30.568;2023-07-08T05:44:39;101022.00;;;19.10
73937;BMP180;59249;59.736;30.568;2023-07-08T05:47:08;101020.00;;;19.30
73937;BMP180;59249;59.736;30.568;2023-07-08T05:49:36;101024.00;;;19.40
73937;BMP180;59249;59.736;30.568;2023-07-08T05:52:07;101016.00;;;19.50
73937;BMP180;59249;59.736;30.568;2023-07-08T05:54:38;101011.00;;;19.60
73937;BMP180;59249;59.736;30.568;2023-07-08T05:57:08;101010.00;;;19.80
73937;BMP180;59249;59.736;30.568;2023-07-08T05:59:38;101022.00;;;19.90
73937;BMP180;59249;59.736;30.568;2023-07-08T06:02:08;101014.00;;;20.10
73937;BMP180;59249;59.736;30.568;2023-07-08T06:04:41;101014.00;;;20.10
73937;BMP180;59249;59.736;30.568;2023-07-08T06:07:11;101016.00;;;20.20
73937;BMP180;59249;59.736;30.568;2023-07-08T06:09:40;101008.00;;;20.20
73937;BMP180;59249;59.736;30.568;2023-07-08T06:12:14;101004.00;;;20.40
73937;BMP180;59249;59.736;30.568;2023-07-08T06:14:45;100990.00;;;20.30
73937;BMP180;59249;59.736;30.568;2023-07-08T06:17:15;100995.00;;;20.50
73937;BMP180;59249;59.736;30.568;2023-07-08T06:19:44;100999.00;;;20.50
73937;BMP180;59249;59.736;30.568;2023-07-08T06:22:15;101007.00;;;20.50
73937;BMP180;59249;59.736;30.568;2023-07-08T06:25:04;101005.00;;;20.50
73937;BMP180;59249;59.736;30.568;2023-07-08T06:27:33;101001.00;;;20.30
73937;BMP180;59249;59.736;30.568;2023-07-08T06:30:02;101005.00;;;20.10
73937;BMP180;59249;59.736;30.568;2023-07-08T06:32:37;101001.00;;;20.00
73937;BMP180;59249;59.736;30.568;2023-07-08T06:35:09;101004.00;;;20.00
73937;BMP180;59249;59.736;30.568;2023-07-08T06:37:39;100997.00;;;19.90
73937;BMP180;59249;59.736;30.568;2023-07-08T06:40:09;100993.00;;;19.80
73937;BMP180;59249;59.736;30.568;2023-07-08T06:42:38;100990.00;;;19.80
73937;BMP180;59249;59.736;30.568;2023-07-08T06:45:18;100992.00;;;19.90
73937;BMP180;59249;59.736;30.568;2023-07-08T06:47:50;100986.00;;;20.00
73937;BMP180;59249;59.736;30.568;2023-07-08T06:50:19;100984.00;;;20.00
73937;BMP180;59249;59.736;30.568;2023-07-08T06:52:49;100976.00;;;19.90
73937;BMP180;59249;59.736;30.568;2023-07-08T06:55:18;100976.00;;;19.90
73937;BMP180;59249;59.736;30.568;2023-07-08T06:57:46;100971.00;;;20.00
73937;BMP180;59249;59.736;30.568;2023-07-08T07:00:18;100965.00;;;20.10
73937;BMP180;59249;59.736;30.568;2023-07-08T07:02:47;100982.00;;;20.40
73937;BMP180;59249;59.736;30.568;2023-07-08T07:05:16;100972.00;;;20.50
73937;BMP180;59249;59.736;30.568;2023-07-08T07:07:50;100967.00;;;20.50
73937;BMP180;59249;59.736;30.568;2023-07-08T07:10:19;100964.00;;;20.70
73937;BMP180;59249;59.736;30.568;2023-07-08T07:12:48;100960.00;;;20.80
73937;BMP180;59249;59.736;30.568;2023-07-08T07:15:17;100970.00;;;20.90
73937;BMP180;59249;59.736;30.568;2023-07-08T07:17:46;100959.00;;;21.00
73937;BMP180;59249;59.736;30.568;2023-07-08T07:20:15;100967.00;;;21.00
73937;BMP180;59249;59.736;30.568;2023-07-08T07:22:44;100963.00;;;21.10
73937;BMP180;59249;59.736;30.568;2023-07-08T07:25:15;100978.00;;;21.10
73937;BMP180;59249;59.736;30.568;2023-07-08T07:27:44;100967.00;;;21.10
73937;BMP180;59249;59.736;30.568;2023-07-08T07:30:13;100971.00;;;21.00
73937;BMP180;59249;59.736;30.568;2023-07-08T07:32:43;100978.00;;;21.20
73937;BMP180;59249;59.736;30.568;2023-07-08T07:35:15;100981.00;;;21.30
73937;BMP180;59249;59.736;30.568;2023-07-08T07:37:44;100977.00;;;21.40
73937;BMP180;59249;59.736;30.568;2023-07-08T07:40:15;100976.00;;;21.30
73937;BMP180;59249;59.736;30.568;2023-07-08T07:42:45;100975.00;;;21.30
73937;BMP180;59249;59.736;30.568;2023-07-08T07:45:14;100980.00;;;21.30
73937;BMP180;59249;59.736;30.568;2023-07-08T07:47:43;100975.00;;;21.10
73937;BMP180;59249;59.736;30.568;2023-07-08T07:50:12;100974.00;;;20.90
73937;BMP180;59249;59.736;30.568;2023-07-08T07:52:40;100979.00;;;20.90
73937;BMP180;59249;59.736;30.568;2023-07-08T07:55:12;100993.00;;;20.90
73937;BMP180;59249;59.736;30.568;2023-07-08T07:57:43;100992.00;;;20.80
73937;BMP180;59249;59.736;30.568;2023-07-08T08:00:13;100990.00;;;20.70
73937;BMP180;59249;59.736;30.568;2023-07-08T08:02:44;100985.00;;;20.50
73937;BMP180;59249;59.736;30.568;2023-07-08T08:05:16;101000.00;;;20.00
73937;BMP180;59249;59.736;30.568;2023-07-08T08:07:46;101005.00;;;19.70
73937;BMP180;59249;59.736;30.568;2023-07-08T08:10:16;101007.00;;;19.20
73937;BMP180;59249;59.736;30.568;2023-07-08T08:12:45;101011.00;;;19.10
73937;BMP180;59249;59.736;30.568;2023-07-08T08:15:21;101004.00;;;19.00
73937;BMP180;59249;59.736;30.568;2023-07-08T08:17:53;101001.00;;;19.10
73937;BMP180;59249;59.736;30.568;2023-07-08T08:20:23;100999.00;;;19.20
73937;BMP180;59249;59.736;30.568;2023-07-08T08:22:56;100997.00;;;19.30
73937;BMP180;59249;59.736;30.568;2023-07-08T08:25:26;100987.00;;;19.40
73937;BMP180;59249;59.736;30.568;2023-07-08T08:27:55;100989.00;;;19.50
73937;BMP180;59249;59.736;30.568;2023-07-08T08:30:24;100985.00;;;19.60
73937;BMP180;59249;59.736;30.568;2023-07-08T08:32:53;100988.00;;;19.80
73937;BMP180;59249;59.736;30.568;2023-07-08T08:35:21;100986.00;;;20.00
73937;BMP180;59249;59.736;30.568;2023-07-08T08:37:50;100980.00;;;20.10
73937;BMP180;59249;59.736;30.568;2023-07-08T08:40:20;100982.00;;;20.40
73937;BMP180;59249;59.736;30.568;2023-07-08T08:43:00;100978.00;;;20.60
73937;BMP180;59249;59.736;30.568;2023-07-08T08:45:37;100980.00;;;20.60
73937;BMP180;59249;59.736;30.568;2023-07-08T08:48:15;100984.00;;;20.70
73937;BMP180;59249;59.736;30.568;2023-07-08T08:50:51;100977.00;;;20.70
73937;BMP180;59249;59.736;30.568;2023-07-08T08:53:25;100976.00;;;20.70
73937;BMP180;59249;59.736;30.568;2023-07-08T08:56:03;100974.00;;;20.80
73937;BMP180;59249;59.736;30.568;2023-07-08T08:58:43;100976.00;;;21.00
73937;BMP180;59249;59.736;30.568;2023-07-08T09:01:16;100982.00;;;21.10
73937;BMP180;59249;59.736;30.568;2023-07-08T09:03:49;100980.00;;;21.30
73937;BMP180;59249;59.736;30.568;2023-07-08T09:06:26;100978.00;;;21.40
73937;BMP180;59249;59.736;30.568;2023-07-08T09:09:00;100977.00;;;21.40
73937;BMP180;59249;59.736;30.568;2023-07-08T09:11:40;100979.00;;;21.40
73937;BMP180;59249;59.736;30.568;2023-07-08T09:14:20;100982.00;;;21.50
73937;BMP180;59249;59.736;30.568;2023-07-08T09:16:58;100983.00;;;21.70
73937;BMP180;59249;59.736;30.568;2023-07-08T09:19:45;100992.00;;;21.70
73937;BMP180;59249;59.736;30.568;2023-07-08T09:22:26;100995.00;;;21.70
73937;BMP180;59249;59.736;30.568;2023-07-08T09:25:19;100985.00;;;21.30
73937;BMP180;59249;59.736;30.568;2023-07-08T09:27:52;100978.00;;;20.90
73937;BMP180;59249;59.736;30.568;2023-07-08T09:30:23;100977.00;;;20.90
73937;BMP180;59249;59.736;30.568;2023-07-08T09:32:56;100988.00;;;21.00
73937;BMP180;59249;59.736;30.568;2023-07-08T09:35:27;100984.00;;;21.20
73937;BMP180;59249;59.736;30.568;2023-07-08T09:38:07;100978.00;;;21.30
73937;BMP180;59249;59.736;30.568;2023-07-08T09:40:39;100990.00;;;21.20
73937;BMP180;59249;59.736;30.568;2023-07-08T09:43:18;100991.00;;;21.30
73937;BMP180;59249;59.736;30.568;2023-07-08T09:45:57;100989.00;;;21.20
73937;BMP180;59249;59.736;30.568;2023-07-08T09:48:29;100992.00;;;21.10
73937;BMP180;59249;59.736;30.568;2023-07-08T09:51:01;100994.00;;;21.00
73937;BMP180;59249;59.736;30.568;2023-07-08T09:53:34;100993.00;;;20.80
73937;BMP180;59249;59.736;30.568;2023-07-08T09:56:04;100982.00;;;20.90
73937;BMP180;59249;59.736;30.568;2023-07-08T09:58:40;100991.00;;;21.00
73937;BMP180;59249;59.736;30.568;2023-07-08T10:01:21;100989.00;;;21.20
73937;BMP180;59249;59.736;30.568;2023-07-08T10:03:57;100983.00;;;21.40
73937;BMP180;59249;59.736;30.568;2023-07-08T10:06:29;100982.00;;;21.60
73937;BMP180;59249;59.736;30.568;2023-07-08T10:09:02;100970.00;;;21.70
73937;BMP180;59249;59.736;30.568;2023-07-08T10:11:37;100958.00;;;21.70
73937;BMP180;59249;59.736;30.568;2023-07-08T10:14:13;100963.00;;;21.90
73937;BMP180;59249;59.736;30.568;2023-07-08T10:16:52;100959.00;;;22.10
73937;BMP180;59249;59.736;30.568;2023-07-08T10:19:21;100958.00;;;22.20
73937;BMP180;59249;59.736;30.568;2023-07-08T10:22:07;100953.00;;;22.40
73937;BMP180;59249;59.736;30.568;2023-07-08T10:24:58;100958.00;;;22.50
73937;BMP180;59249;59.736;30.568;2023-07-08T10:27:41;100962.00;;;22.70
73937;BMP180;59249;59.736;30.568;2023-07-08T10:30:21;100960.00;;;23.00
73937;BMP180;59249;59.736;30.568;2023-07-08T10:33:13;100955.00;;;23.00
73937;BMP180;59249;59.736;30.568;2023-07-08T10:36:07;100956.00;;;23.10
73937;BMP180;59249;59.736;30.568;2023-07-08T10:38:51;100960.00;;;23.20
73937;BMP180;59249;59.736;30.568;2023-07-08T10:41:33;100960.00;;;23.30
73937;BMP180;59249;59.736;30.568;2023-07-08T10:44:14;100955.00;;;23.50
73937;BMP180;59249;59.736;30.568;2023-07-08T10:46:57;100951.00;;;23.80
73937;BMP180;59249;59.736;30.568;2023-07-08T10:49:50;100949.00;;;23.90
73937;BMP180;59249;59.736;30.568;2023-07-08T10:52:49;100951.00;;;24.30
73937;BMP180;59249;59.736;30.568;2023-07-08T10:55:32;100956.00;;;24.30
73937;BMP180;59249;59.736;30.568;2023-07-08T10:58:28;100957.00;;;23.90
73937;BMP180;59249;59.736;30.568;2023-07-08T11:01:13;100963.00;;;23.90
73937;BMP180;59249;59.736;30.568;2023-07-08T11:04:12;100969.00;;;23.60
73937;BMP180;59249;59.736;30.568;2023-07-08T11:07:07;100970.00;;;23.40
73937;BMP180;59249;59.736;30.568;2023-07-08T11:09:46;100964.00;;;23.10
73937;BMP180;59249;59.736;30.568;2023-07-08T11:12:24;100972.00;;;23.10
73937;BMP180;59249;59.736;30.568;2023-07-08T11:15:00;100970.00;;;23.00
73937;BMP180;59249;59.736;30.568;2023-07-08T11:17:39;100971.00;;;22.70
73937;BMP180;59249;59.736;30.568;2023-07-08T11:20:18;100974.00;;;22.70
73937;BMP180;59249;59.736;30.568;2023-07-08T11:22:56;100970.00;;;22.70
73937;BMP180;59249;59.736;30.568;2023-07-08T11:25:30;100973.00;;;22.60
73937;BMP180;59249;59.736;30.568;2023-07-08T11:28:03;100983.00;;;22.40
73937;BMP180;59249;59.736;30.568;2023-07-08T11:30:34;100984.00;;;22.30
73937;BMP180;59249;59.736;30.568;2023-07-08T11:33:12;100987.00;;;22.20
73937;BMP180;59249;59.736;30.568;2023-07-08T11:35:44;100989.00;;;22.20
73937;BMP180;59249;59.736;30.568;2023-07-08T11:38:19;100987.00;;;22.00
73937;BMP180;59249;59.736;30.568;2023-07-08T11:40:57;100985.00;;;21.80
73937;BMP180;59249;59.736;30.568;2023-07-08T11:43:34;100986.00;;;21.80
73937;BMP180;59249;59.736;30.568;2023-07-08T11:46:15;100985.00;;;21.70
73937;BMP180;59249;59.736;30.568;2023-07-08T11:48:50;100992.00;;;21.40
73937;BMP180;59249;59.736;30.568;2023-07-08T11:51:23;100991.00;;;20.80
73937;BMP180;59249;59.736;30.568;2023-07-08T11:54:02;100995.00;;;20.60
73937;BMP180;59249;59.736;30.568;2023-07-08T11:56:56;100994.00;;;20.30
73937;BMP180;59249;59.736;30.568;2023-07-08T11:59:30;101001.00;;;19.90
73937;BMP180;59249;59.736;30.568;2023-07-08T12:02:03;101003.00;;;19.90
73937;BMP180;59249;59.736;30.568;2023-07-08T12:04:36;101004.00;;;19.80
73937;BMP180;59249;59.736;30.568;2023-07-08T12:07:31;101016.00;;;19.60
73937;BMP180;59249;59.736;30.568;2023-07-08T12:10:13;101015.00;;;19.60
73937;BMP180;59249;59.736;30.568;2023-07-08T12:12:46;101024.00;;;19.30
73937;BMP180;59249;59.736;30.568;2023-07-08T12:15:22;101031.00;;;19.10
73937;BMP180;59249;59.736;30.568;2023-07-08T12:17:54;101014.00;;;19.00
73937;BMP180;59249;59.736;30.568;2023-07-08T12:20:27;101013.00;;;19.00
73937;BMP180;59249;59.736;30.568;2023-07-08T12:22:59;101015.00;;;19.10
73937;BMP180;59249;59.736;30.568;2023-07-08T12:25:32;101021.00;;;19.20
73937;BMP180;59249;59.736;30.568;2023-07-08T12:28:05;101013.00;;;19.30
73937;BMP180;59249;59.736;30.568;2023-07-08T12:30:34;101021.00;;;19.30
73937;BMP180;59249;59.736;30.568;2023-07-08T12:33:11;101012.00;;;19.20
73937;BMP180;59249;59.736;30.568;2023-07-08T12:35:42;101011.00;;;19.40
73937;BMP180;59249;59.736;30.568;2023-07-08T12:38:25;101006.00;;;19.40
73937;BMP180;59249;59.736;30.568;2023-07-08T12:40:58;101004.00;;;19.60
73937;BMP180;59249;59.736;30.568;2023-07-08T12:43:30;100995.00;;;19.80
73937;BMP180;59249;59.736;30.568;2023-07-08T12:45:58;100996.00;;;20.00
73937;BMP180;59249;59.736;30.568;2023-07-08T12:48:31;100994.00;;;20.00
73937;BMP180;59249;59.736;30.568;2023-07-08T12:51:03;100991.00;;;20.30
73937;BMP180;59249;59.736;30.568;2023-07-08T12:53:32;100986.00;;;20.40
73937;BMP180;59249;59.736;30.568;2023-07-08T12:56:04;100985.00;;;20.60
73937;BMP180;59249;59.736;30.568;2023-07-08T12:58:37;100985.00;;;20.70
73937;BMP180;59249;59.736;30.568;2023-07-08T13:01:13;100982.00;;;20.90
73937;BMP180;59249;59.736;30.568;2023-07-08T13:03:55;100975.00;;;21.00
73937;BMP180;59249;59.736;30.568;2023-07-08T13:06:29;100971.00;;;21.00
73937;BMP180;59249;59.736;30.568;2023-07-08T13:09:06;100978.00;;;21.00
73937;BMP180;59249;59.736;30.568;2023-07-08T13:11:53;100968.00;;;21.00
73937;BMP180;59249;59.736;30.568;2023-07-08T13:14:25;100966.00;;;21.00
73937;BMP180;59249;59.736;30.568;2023-07-08T13:16:54;100961.00;;;20.90
73937;BMP180;59249;59.736;30.568;2023-07-08T13:19:23;100969.00;;;21.00
73937;BMP180;59249;59.736;30.568;2023-07-08T13:21:55;100972.00;;;21.00
73937;BMP180;59249;59.736;30.568;2023-07-08T13:24:30;100971.00;;;21.20
73937;BMP180;59249;59.736;30.568;2023-07-08T13:27:04;100970.00;;;21.20
73937;BMP180;59249;59.736;30.568;2023-07-08T13:29:38;100959.00;;;21.40
73937;BMP180;59249;59.736;30.568;2023-07-08T13:32:10;100959.00;;;21.60
73937;BMP180;59249;59.736;30.568;2023-07-08T13:34:39;100956.00;;;21.80
73937;BMP180;59249;59.736;30.568;2023-07-08T13:37:10;100953.00;;;21.90
73937;BMP180;59249;59.736;30.568;2023-07-08T13:39:44;100943.00;;;22.00
73937;BMP180;59249;59.736;30.568;2023-07-08T13:42:15;100949.00;;;22.20
73937;BMP180;59249;59.736;30.568;2023-07-08T13:44:46;100950.00;;;22.10
73937;BMP180;59249;59.736;30.568;2023-07-08T13:47:25;100956.00;;;22.20
73937;BMP180;59249;59.736;30.568;2023-07-08T13:50:00;100931.00;;;22.10
73937;BMP180;59249;59.736;30.568;2023-07-08T13:52:45;100940.00;;;22.20
73937;BMP180;59249;59.736;30.568;2023-07-08T13:55:17;100929.00;;;22.10
73937;BMP180;59249;59.736;30.568;2023-07-08T13:57:59;100938.00;;;21.80
73937;BMP180;59249;59.736;30.568;2023-07-08T14:00:31;100945.00;;;21.70
73937;BMP180;59249;59.736;30.568;2023-07-08T14:03:00;100943.00;;;21.70
73937;BMP180;59249;59.736;30.568;2023-07-08T14:05:29;100951.00;;;21.30
73937;BMP180;59249;59.736;30.568;2023-07-08T14:07:58;100963.00;;;21.30
73937;BMP180;59249;59.736;30.568;2023-07-08T14:10:26;100968.00;;;20.90
73937;BMP180;59249;59.736;30.568;2023-07-08T14:12:57;100962.00;;;20.80
73937;BMP180;59249;59.736;30.568;2023-07-08T14:15:25;100954.00;;;20.60
73937;BMP180;59249;59.736;30.568;2023-07-08T14:17:55;100960.00;;;20.50